Teller, Alaska
Current Conditions -  °F | °C
As of 9:58 PM on Thursday 30 Oct 2014 (Local Time) from PATE Reporting Station
Clear Clear  
Wind Chill:   Ceiling: Unl
Heat Index: 16°   Visibility: 10mi
Dew Point: 14°   Wind: 14mph
Humidity: 92%   Direction: 70°ENE
Pressure: 29.81"   Gusts: NA
Location:  65.26°N, 166.36°W
Report Text: PATE 310558Z AUTO 07012KT 10SM CLR M09/M10 A2981 RMK AO2 SLP109 T10891100 11039 21089 58021 FZRANO
Loading
Personal Weather Stations






























Interactive Weather Map
Tropical Storm Tracking
New forecast layout! Learn more

10-Day Weather Forecast

Advertisements
Track Severe Weather on mobile